sensor_id;sensor_type;location;lat;lon;timestamp;temperature;humidity
1650;DHT22;822;53.670;8.676;2023-02-04T00:00:19;4.40;88.10
1650;DHT22;822;53.670;8.676;2023-02-04T00:02:46;4.40;88.40
1650;DHT22;822;53.670;8.676;2023-02-04T00:05:15;4.40;88.40
1650;DHT22;822;53.670;8.676;2023-02-04T00:07:43;4.40;88.60
1650;DHT22;822;53.670;8.676;2023-02-04T00:10:15;4.40;88.80
1650;DHT22;822;53.670;8.676;2023-02-04T00:12:43;4.40;88.90
1650;DHT22;822;53.670;8.676;2023-02-04T00:15:10;4.30;88.90
1650;DHT22;822;53.670;8.676;2023-02-04T00:17:37;4.30;89.00
1650;DHT22;822;53.670;8.676;2023-02-04T00:20:05;4.30;89.20
1650;DHT22;822;53.670;8.676;2023-02-04T00:22:32;4.20;89.30
1650;DHT22;822;53.670;8.676;2023-02-04T00:25:00;4.20;89.50
1650;DHT22;822;53.670;8.676;2023-02-04T00:27:28;4.20;89.50
1650;DHT22;822;53.670;8.676;2023-02-04T00:29:55;4.20;89.60
1650;DHT22;822;53.670;8.676;2023-02-04T00:32:22;4.10;89.70
1650;DHT22;822;53.670;8.676;2023-02-04T00:34:49;4.10;89.80
1650;DHT22;822;53.670;8.676;2023-02-04T00:37:21;4.00;89.70
1650;DHT22;822;53.670;8.676;2023-02-04T00:39:48;4.00;90.00
1650;DHT22;822;53.670;8.676;2023-02-04T00:42:16;4.00;90.00
1650;DHT22;822;53.670;8.676;2023-02-04T00:44:44;4.00;90.10
1650;DHT22;822;53.670;8.676;2023-02-04T00:47:11;4.00;90.20
1650;DHT22;822;53.670;8.676;2023-02-04T00:49:39;4.00;90.30
1650;DHT22;822;53.670;8.676;2023-02-04T00:52:06;3.90;90.30
1650;DHT22;822;53.670;8.676;2023-02-04T00:54:33;3.90;90.40
1650;DHT22;822;53.670;8.676;2023-02-04T00:57:03;4.00;90.90
1650;DHT22;822;53.670;8.676;2023-02-04T00:59:30;4.10;90.80
1650;DHT22;822;53.670;8.676;2023-02-04T01:01:58;4.10;90.50
1650;DHT22;822;53.670;8.676;2023-02-04T01:04:26;4.10;90.50
1650;DHT22;822;53.670;8.676;2023-02-04T01:06:54;4.00;90.50
1650;DHT22;822;53.670;8.676;2023-02-04T01:09:21;4.00;90.60
1650;DHT22;822;53.670;8.676;2023-02-04T01:11:51;4.00;90.60
1650;DHT22;822;53.670;8.676;2023-02-04T01:14:18;3.90;90.60
1650;DHT22;822;53.670;8.676;2023-02-04T01:16:45;3.90;90.70
1650;DHT22;822;53.670;8.676;2023-02-04T01:19:14;3.80;90.60
1650;DHT22;822;53.670;8.676;2023-02-04T01:21:41;3.80;90.70
1650;DHT22;822;53.670;8.676;2023-02-04T01:24:08;3.80;90.70
1650;DHT22;822;53.670;8.676;2023-02-04T01:26:35;3.80;90.50
1650;DHT22;822;53.670;8.676;2023-02-04T01:29:02;3.80;90.30
1650;DHT22;822;53.670;8.676;2023-02-04T01:31:29;3.80;90.20
1650;DHT22;822;53.670;8.676;2023-02-04T01:33:58;3.80;89.90
1650;DHT22;822;53.670;8.676;2023-02-04T01:36:27;3.80;89.40
1650;DHT22;822;53.670;8.676;2023-02-04T01:38:54;3.80;88.80
1650;DHT22;822;53.670;8.676;2023-02-04T01:41:22;3.90;88.00
1650;DHT22;822;53.670;8.676;2023-02-04T01:43:51;3.90;87.80
1650;DHT22;822;53.670;8.676;2023-02-04T01:46:18;3.90;87.60
1650;DHT22;822;53.670;8.676;2023-02-04T01:48:46;3.80;87.50
1650;DHT22;822;53.670;8.676;2023-02-04T01:51:14;3.80;87.50
1650;DHT22;822;53.670;8.676;2023-02-04T01:53:44;3.70;87.80
1650;DHT22;822;53.670;8.676;2023-02-04T01:56:15;3.60;87.80
1650;DHT22;822;53.670;8.676;2023-02-04T01:58:43;3.50;88.10
1650;DHT22;822;53.670;8.676;2023-02-04T02:01:35;3.50;88.30
1650;DHT22;822;53.670;8.676;2023-02-04T02:04:03;3.40;88.30
1650;DHT22;822;53.670;8.676;2023-02-04T02:06:31;3.30;88.60
1650;DHT22;822;53.670;8.676;2023-02-04T02:08:58;3.20;88.60
1650;DHT22;822;53.670;8.676;2023-02-04T02:11:26;3.20;89.00
1650;DHT22;822;53.670;8.676;2023-02-04T02:13:53;3.20;89.40
1650;DHT22;822;53.670;8.676;2023-02-04T02:16:20;3.10;89.60
1650;DHT22;822;53.670;8.676;2023-02-04T02:18:49;3.10;89.50
1650;DHT22;822;53.670;8.676;2023-02-04T02:21:23;3.10;89.20
1650;DHT22;822;53.670;8.676;2023-02-04T02:23:56;3.00;89.20
1650;DHT22;822;53.670;8.676;2023-02-04T02:26:25;2.90;89.40
1650;DHT22;822;53.670;8.676;2023-02-04T02:28:53;2.90;89.60
1650;DHT22;822;53.670;8.676;2023-02-04T02:31:21;2.90;89.70
1650;DHT22;822;53.670;8.676;2023-02-04T02:33:49;2.80;89.90
1650;DHT22;822;53.670;8.676;2023-02-04T02:36:16;2.80;90.00
1650;DHT22;822;53.670;8.676;2023-02-04T02:38:44;2.80;90.00
1650;DHT22;822;53.670;8.676;2023-02-04T02:41:13;2.70;90.00
1650;DHT22;822;53.670;8.676;2023-02-04T02:43:40;2.70;89.90
1650;DHT22;822;53.670;8.676;2023-02-04T02:46:07;2.60;89.80
1650;DHT22;822;53.670;8.676;2023-02-04T02:48:34;2.50;89.60
1650;DHT22;822;53.670;8.676;2023-02-04T02:51:02;2.40;89.60
1650;DHT22;822;53.670;8.676;2023-02-04T02:53:29;2.40;89.70
1650;DHT22;822;53.670;8.676;2023-02-04T02:55:56;2.30;89.80
1650;DHT22;822;53.670;8.676;2023-02-04T02:58:30;2.30;90.00
1650;DHT22;822;53.670;8.676;2023-02-04T03:00:58;2.20;89.90
1650;DHT22;822;53.670;8.676;2023-02-04T03:03:27;2.10;90.00
1650;DHT22;822;53.670;8.676;2023-02-04T03:06:02;2.10;90.30
1650;DHT22;822;53.670;8.676;2023-02-04T03:08:31;2.00;90.10
1650;DHT22;822;53.670;8.676;2023-02-04T03:10:58;2.00;90.20
1650;DHT22;822;53.670;8.676;2023-02-04T03:13:25;2.00;90.20
1650;DHT22;822;53.670;8.676;2023-02-04T03:15:54;2.00;90.30
1650;DHT22;822;53.670;8.676;2023-02-04T03:18:22;2.00;90.30
1650;DHT22;822;53.670;8.676;2023-02-04T03:20:49;2.00;90.30
1650;DHT22;822;53.670;8.676;2023-02-04T03:23:17;2.00;90.30
1650;DHT22;822;53.670;8.676;2023-02-04T03:25:45;1.90;90.30
1650;DHT22;822;53.670;8.676;2023-02-04T03:28:12;1.90;90.30
1650;DHT22;822;53.670;8.676;2023-02-04T03:30:39;1.80;90.30
1650;DHT22;822;53.670;8.676;2023-02-04T03:33:08;1.80;90.40
1650;DHT22;822;53.670;8.676;2023-02-04T03:35:35;1.80;90.40
1650;DHT22;822;53.670;8.676;2023-02-04T03:38:02;1.80;90.50
1650;DHT22;822;53.670;8.676;2023-02-04T03:40:29;1.80;90.50
1650;DHT22;822;53.670;8.676;2023-02-04T03:42:56;1.80;90.50
1650;DHT22;822;53.670;8.676;2023-02-04T03:45:23;1.70;90.60
1650;DHT22;822;53.670;8.676;2023-02-04T03:47:50;1.80;90.70
1650;DHT22;822;53.670;8.676;2023-02-04T03:50:19;1.70;90.60
1650;DHT22;822;53.670;8.676;2023-02-04T03:52:46;1.70;90.60
1650;DHT22;822;53.670;8.676;2023-02-04T03:55:14;1.70;90.60
1650;DHT22;822;53.670;8.676;2023-02-04T03:57:41;1.60;90.60
1650;DHT22;822;53.670;8.676;2023-02-04T04:00:10;1.60;90.70
1650;DHT22;822;53.670;8.676;2023-02-04T04:02:37;1.60;90.70
1650;DHT22;822;53.670;8.676;2023-02-04T04:05:04;1.50;90.70
1650;DHT22;822;53.670;8.676;2023-02-04T04:07:33;1.50;90.70
1650;DHT22;822;53.670;8.676;2023-02-04T04:10:00;1.40;90.70
1650;DHT22;822;53.670;8.676;2023-02-04T04:12:27;1.40;90.80
1650;DHT22;822;53.670;8.676;2023-02-04T04:14:54;1.30;90.80
1650;DHT22;822;53.670;8.676;2023-02-04T04:17:21;1.30;90.80
1650;DHT22;822;53.670;8.676;2023-02-04T04:19:48;1.20;90.70
1650;DHT22;822;53.670;8.676;2023-02-04T04:22:15;1.10;90.70
1650;DHT22;822;53.670;8.676;2023-02-04T04:24:44;1.00;90.80
1650;DHT22;822;53.670;8.676;2023-02-04T04:27:11;1.00;90.90
1650;DHT22;822;53.670;8.676;2023-02-04T04:29:41;1.00;91.00
1650;DHT22;822;53.670;8.676;2023-02-04T04:32:08;1.00;91.10
1650;DHT22;822;53.670;8.676;2023-02-04T04:34:35;0.90;91.10
1650;DHT22;822;53.670;8.676;2023-02-04T04:37:02;0.90;91.20
1650;DHT22;822;53.670;8.676;2023-02-04T04:39:29;0.90;91.30
1650;DHT22;822;53.670;8.676;2023-02-04T04:41:58;0.90;91.40
1650;DHT22;822;53.670;8.676;2023-02-04T04:44:25;0.90;91.50
1650;DHT22;822;53.670;8.676;2023-02-04T04:46:52;0.90;91.60
1650;DHT22;822;53.670;8.676;2023-02-04T04:49:19;0.90;91.50
1650;DHT22;822;53.670;8.676;2023-02-04T04:51:46;0.90;91.60
1650;DHT22;822;53.670;8.676;2023-02-04T04:54:13;0.80;91.60
1650;DHT22;822;53.670;8.676;2023-02-04T04:56:44;0.80;91.60
1650;DHT22;822;53.670;8.676;2023-02-04T04:59:15;0.90;91.70
1650;DHT22;822;53.670;8.676;2023-02-04T05:01:42;0.80;91.70
1650;DHT22;822;53.670;8.676;2023-02-04T05:04:09;0.80;91.70
1650;DHT22;822;53.670;8.676;2023-02-04T05:06:36;0.80;91.70
1650;DHT22;822;53.670;8.676;2023-02-04T05:09:04;0.80;91.70
1650;DHT22;822;53.670;8.676;2023-02-04T05:11:31;0.80;91.80
1650;DHT22;822;53.670;8.676;2023-02-04T05:14:04;0.80;91.70
1650;DHT22;822;53.670;8.676;2023-02-04T05:16:32;0.80;91.80
1650;DHT22;822;53.670;8.676;2023-02-04T05:18:59;0.80;91.80
1650;DHT22;822;53.670;8.676;2023-02-04T05:21:26;0.80;91.80
1650;DHT22;822;53.670;8.676;2023-02-04T05:23:53;0.80;91.80
1650;DHT22;822;53.670;8.676;2023-02-04T05:26:20;0.80;91.70
1650;DHT22;822;53.670;8.676;2023-02-04T05:28:47;0.80;91.70
1650;DHT22;822;53.670;8.676;2023-02-04T05:31:15;0.80;91.80
1650;DHT22;822;53.670;8.676;2023-02-04T05:33:43;0.80;91.80
1650;DHT22;822;53.670;8.676;2023-02-04T05:36:10;0.80;91.80
1650;DHT22;822;53.670;8.676;2023-02-04T05:38:37;0.80;91.80
1650;DHT22;822;53.670;8.676;2023-02-04T05:41:04;0.80;91.80
1650;DHT22;822;53.670;8.676;2023-02-04T05:43:31;0.80;91.90
1650;DHT22;822;53.670;8.676;2023-02-04T05:45:58;0.80;91.90
1650;DHT22;822;53.670;8.676;2023-02-04T05:48:25;0.80;91.90
1650;DHT22;822;53.670;8.676;2023-02-04T05:50:54;0.80;91.90
1650;DHT22;822;53.670;8.676;2023-02-04T05:53:21;0.80;92.00
1650;DHT22;822;53.670;8.676;2023-02-04T05:55:48;0.80;91.90
1650;DHT22;822;53.670;8.676;2023-02-04T05:58:15;0.80;91.90
1650;DHT22;822;53.670;8.676;2023-02-04T06:00:42;0.70;91.80
1650;DHT22;822;53.670;8.676;2023-02-04T06:03:09;0.70;91.90
1650;DHT22;822;53.670;8.676;2023-02-04T06:05:37;0.70;91.90
1650;DHT22;822;53.670;8.676;2023-02-04T06:08:06;0.70;91.90
1650;DHT22;822;53.670;8.676;2023-02-04T06:10:33;0.70;91.90
1650;DHT22;822;53.670;8.676;2023-02-04T06:13:00;0.70;91.90
1650;DHT22;822;53.670;8.676;2023-02-04T06:15:27;0.70;91.90
1650;DHT22;822;53.670;8.676;2023-02-04T06:17:54;0.70;92.20
1650;DHT22;822;53.670;8.676;2023-02-04T06:20:22;0.70;91.90
1650;DHT22;822;53.670;8.676;2023-02-04T06:22:50;0.70;91.90
1650;DHT22;822;53.670;8.676;2023-02-04T06:25:20;0.60;91.90
1650;DHT22;822;53.670;8.676;2023-02-04T06:27:47;0.60;91.90
1650;DHT22;822;53.670;8.676;2023-02-04T06:30:15;0.70;92.00
1650;DHT22;822;53.670;8.676;2023-02-04T06:32:42;0.70;92.00
1650;DHT22;822;53.670;8.676;2023-02-04T06:35:10;0.70;92.00
1650;DHT22;822;53.670;8.676;2023-02-04T06:37:37;0.70;92.00
1650;DHT22;822;53.670;8.676;2023-02-04T06:40:05;0.70;92.00
1650;DHT22;822;53.670;8.676;2023-02-04T06:42:35;0.70;92.10
1650;DHT22;822;53.670;8.676;2023-02-04T06:45:02;0.70;92.10
1650;DHT22;822;53.670;8.676;2023-02-04T06:47:29;0.60;92.10
1650;DHT22;822;53.670;8.676;2023-02-04T06:49:56;0.60;92.10
1650;DHT22;822;53.670;8.676;2023-02-04T06:52:23;0.60;92.40
1650;DHT22;822;53.670;8.676;2023-02-04T06:54:50;0.60;92.30
1650;DHT22;822;53.670;8.676;2023-02-04T06:57:17;0.60;92.40
1650;DHT22;822;53.670;8.676;2023-02-04T06:59:46;0.60;92.40
1650;DHT22;822;53.670;8.676;2023-02-04T07:02:13;0.60;92.40
1650;DHT22;822;53.670;8.676;2023-02-04T07:04:42;0.50;92.40
1650;DHT22;822;53.670;8.676;2023-02-04T07:07:10;0.50;92.50
1650;DHT22;822;53.670;8.676;2023-02-04T07:09:37;0.50;92.50
1650;DHT22;822;53.670;8.676;2023-02-04T07:12:05;0.50;92.90
1650;DHT22;822;53.670;8.676;2023-02-04T07:14:33;0.50;92.70
1650;DHT22;822;53.670;8.676;2023-02-04T07:17:04;0.50;92.80
1650;DHT22;822;53.670;8.676;2023-02-04T07:19:31;0.60;92.80
1650;DHT22;822;53.670;8.676;2023-02-04T07:22:00;0.60;92.80
1650;DHT22;822;53.670;8.676;2023-02-04T07:24:27;0.60;92.90
1650;DHT22;822;53.670;8.676;2023-02-04T07:26:54;0.60;93.00
1650;DHT22;822;53.670;8.676;2023-02-04T07:29:21;0.60;93.10
1650;DHT22;822;53.670;8.676;2023-02-04T07:31:48;0.60;93.10
1650;DHT22;822;53.670;8.676;2023-02-04T07:34:19;0.60;93.10
1650;DHT22;822;53.670;8.676;2023-02-04T07:36:46;0.70;93.20
1650;DHT22;822;53.670;8.676;2023-02-04T07:39:13;0.60;93.20
1650;DHT22;822;53.670;8.676;2023-02-04T07:41:40;0.70;93.30
1650;DHT22;822;53.670;8.676;2023-02-04T07:44:07;0.80;93.30
1650;DHT22;822;53.670;8.676;2023-02-04T07:46:34;0.80;93.30
1650;DHT22;822;53.670;8.676;2023-02-04T07:49:01;0.90;93.30
1650;DHT22;822;53.670;8.676;2023-02-04T07:51:30;0.90;93.30
1650;DHT22;822;53.670;8.676;2023-02-04T07:53:57;1.00;93.30
1650;DHT22;822;53.670;8.676;2023-02-04T07:56:27;1.10;93.30
1650;DHT22;822;53.670;8.676;2023-02-04T07:58:54;1.10;93.20
1650;DHT22;822;53.670;8.676;2023-02-04T08:01:21;1.10;93.20
1650;DHT22;822;53.670;8.676;2023-02-04T08:03:48;1.20;93.10
1650;DHT22;822;53.670;8.676;2023-02-04T08:06:18;1.20;93.20
1650;DHT22;822;53.670;8.676;2023-02-04T08:08:47;1.20;93.20
1650;DHT22;822;53.670;8.676;2023-02-04T08:11:14;1.30;93.20
1650;DHT22;822;53.670;8.676;2023-02-04T08:13:41;1.20;93.20
1650;DHT22;822;53.670;8.676;2023-02-04T08:16:08;1.30;93.30
1650;DHT22;822;53.670;8.676;2023-02-04T08:18:35;1.30;93.30
1650;DHT22;822;53.670;8.676;2023-02-04T08:21:02;1.40;93.40
1650;DHT22;822;53.670;8.676;2023-02-04T08:23:33;1.40;93.40
1650;DHT22;822;53.670;8.676;2023-02-04T08:26:08;1.40;93.40
1650;DHT22;822;53.670;8.676;2023-02-04T08:28:35;1.50;93.40
1650;DHT22;822;53.670;8.676;2023-02-04T08:31:03;1.50;93.50
1650;DHT22;822;53.670;8.676;2023-02-04T08:33:30;1.60;93.50
1650;DHT22;822;53.670;8.676;2023-02-04T08:35:58;1.70;93.20
1650;DHT22;822;53.670;8.676;2023-02-04T08:38:25;1.80;93.00
1650;DHT22;822;53.670;8.676;2023-02-04T08:40:52;1.80;92.90
1650;DHT22;822;53.670;8.676;2023-02-04T08:43:27;1.90;93.00
1650;DHT22;822;53.670;8.676;2023-02-04T08:45:56;1.90;92.90
1650;DHT22;822;53.670;8.676;2023-02-04T08:48:34;2.00;92.60
1650;DHT22;822;53.670;8.676;2023-02-04T08:51:05;2.10;92.50
1650;DHT22;822;53.670;8.676;2023-02-04T08:53:33;2.10;92.40
1650;DHT22;822;53.670;8.676;2023-02-04T08:56:00;2.10;92.50
1650;DHT22;822;53.670;8.676;2023-02-04T08:58:28;2.10;92.60
1650;DHT22;822;53.670;8.676;2023-02-04T09:00:58;2.10;92.70
1650;DHT22;822;53.670;8.676;2023-02-04T09:03:25;2.20;92.70
1650;DHT22;822;53.670;8.676;2023-02-04T09:05:58;2.10;92.80
1650;DHT22;822;53.670;8.676;2023-02-04T09:08:37;2.20;92.80
1650;DHT22;822;53.670;8.676;2023-02-04T09:11:06;2.20;92.70
1650;DHT22;822;53.670;8.676;2023-02-04T09:13:37;2.30;92.70
1650;DHT22;822;53.670;8.676;2023-02-04T09:16:05;2.30;92.70
1650;DHT22;822;53.670;8.676;2023-02-04T09:18:33;2.30;92.70
1650;DHT22;822;53.670;8.676;2023-02-04T09:21:19;2.30;92.70
1650;DHT22;822;53.670;8.676;2023-02-04T09:23:48;2.40;92.70
1650;DHT22;822;53.670;8.676;2023-02-04T09:26:16;2.40;92.70
1650;DHT22;822;53.670;8.676;2023-02-04T09:28:45;2.40;92.50
1650;DHT22;822;53.670;8.676;2023-02-04T09:31:13;2.50;92.20
1650;DHT22;822;53.670;8.676;2023-02-04T09:33:52;2.50;91.80
1650;DHT22;822;53.670;8.676;2023-02-04T09:36:27;2.60;91.50
1650;DHT22;822;53.670;8.676;2023-02-04T09:39:03;2.50;91.60
1650;DHT22;822;53.670;8.676;2023-02-04T09:41:30;2.50;91.60
1650;DHT22;822;53.670;8.676;2023-02-04T09:44:02;2.50;91.70
1650;DHT22;822;53.670;8.676;2023-02-04T09:46:56;2.50;91.60
1650;DHT22;822;53.670;8.676;2023-02-04T09:49:26;2.50;91.60
1650;DHT22;822;53.670;8.676;2023-02-04T09:51:54;2.50;91.70
1650;DHT22;822;53.670;8.676;2023-02-04T09:54:27;2.50;91.60
1650;DHT22;822;53.670;8.676;2023-02-04T09:56:59;2.50;91.70
1650;DHT22;822;53.670;8.676;2023-02-04T09:59:32;2.60;91.70
1650;DHT22;822;53.670;8.676;2023-02-04T10:02:16;2.60;91.70
1650;DHT22;822;53.670;8.676;2023-02-04T10:04:55;2.70;91.80
1650;DHT22;822;53.670;8.676;2023-02-04T10:07:26;2.80;91.80
1650;DHT22;822;53.670;8.676;2023-02-04T10:09:56;2.80;91.90
1650;DHT22;822;53.670;8.676;2023-02-04T10:12:24;2.80;91.70
1650;DHT22;822;53.670;8.676;2023-02-04T10:14:53;2.90;91.80
1650;DHT22;822;53.670;8.676;2023-02-04T10:17:21;2.90;91.80
1650;DHT22;822;53.670;8.676;2023-02-04T10:19:48;3.00;91.90
1650;DHT22;822;53.670;8.676;2023-02-04T10:22:17;3.20;91.40
1650;DHT22;822;53.670;8.676;2023-02-04T10:24:45;3.40;91.30
1650;DHT22;822;53.670;8.676;2023-02-04T10:27:15;3.50;91.20
1650;DHT22;822;53.670;8.676;2023-02-04T10:29:43;3.70;90.60
1650;DHT22;822;53.670;8.676;2023-02-04T10:32:30;3.90;89.90
1650;DHT22;822;53.670;8.676;2023-02-04T10:34:59;4.10;89.50
1650;DHT22;822;53.670;8.676;2023-02-04T10:37:29;4.20;89.40
1650;DHT22;822;53.670;8.676;2023-02-04T10:39:57;4.30;89.40
1650;DHT22;822;53.670;8.676;2023-02-04T10:42:25;4.40;87.90
1650;DHT22;822;53.670;8.676;2023-02-04T10:44:53;4.60;86.40
1650;DHT22;822;53.670;8.676;2023-02-04T10:47:22;4.60;84.40
1650;DHT22;822;53.670;8.676;2023-02-04T10:49:55;4.70;85.30
1650;DHT22;822;53.670;8.676;2023-02-04T10:52:35;4.70;84.90
1650;DHT22;822;53.670;8.676;2023-02-04T10:55:04;4.80;85.00
1650;DHT22;822;53.670;8.676;2023-02-04T10:57:35;4.90;85.30
1650;DHT22;822;53.670;8.676;2023-02-04T11:00:05;5.00;84.00
1650;DHT22;822;53.670;8.676;2023-02-04T11:02:41;5.10;83.60
1650;DHT22;822;53.670;8.676;2023-02-04T11:05:14;5.20;82.50
1650;DHT22;822;53.670;8.676;2023-02-04T11:07:45;5.30;81.10
1650;DHT22;822;53.670;8.676;2023-02-04T11:10:18;5.40;80.00
1650;DHT22;822;53.670;8.676;2023-02-04T11:12:58;5.50;78.40
1650;DHT22;822;53.670;8.676;2023-02-04T11:15:45;5.60;78.10
1650;DHT22;822;53.670;8.676;2023-02-04T11:18:26;5.60;77.60
1650;DHT22;822;53.670;8.676;2023-02-04T11:20:57;5.60;78.10
1650;DHT22;822;53.670;8.676;2023-02-04T11:23:33;5.70;78.20
1650;DHT22;822;53.670;8.676;2023-02-04T11:26:07;5.70;78.70
1650;DHT22;822;53.670;8.676;2023-02-04T11:28:47;5.80;78.10
1650;DHT22;822;53.670;8.676;2023-02-04T11:31:26;5.90;78.20
1650;DHT22;822;53.670;8.676;2023-02-04T11:34:23;6.00;78.30
1650;DHT22;822;53.670;8.676;2023-02-04T11:37:09;6.10;78.00
1650;DHT22;822;53.670;8.676;2023-02-04T11:39:39;6.20;77.20
1650;DHT22;822;53.670;8.676;2023-02-04T11:42:17;6.30;76.80
1650;DHT22;822;53.670;8.676;2023-02-04T11:44:51;6.30;76.30
1650;DHT22;822;53.670;8.676;2023-02-04T11:47:19;6.30;76.30
1650;DHT22;822;53.670;8.676;2023-02-04T11:49:53;6.40;75.60
1650;DHT22;822;53.670;8.676;2023-02-04T11:52:21;6.40;74.10
1650;DHT22;822;53.670;8.676;2023-02-04T11:54:53;6.40;74.50
1650;DHT22;822;53.670;8.676;2023-02-04T11:57:20;6.40;74.60
1650;DHT22;822;53.670;8.676;2023-02-04T11:59:47;6.50;73.90
1650;DHT22;822;53.670;8.676;2023-02-04T12:02:16;6.50;74.20
1650;DHT22;822;53.670;8.676;2023-02-04T12:04:53;6.50;74.60
1650;DHT22;822;53.670;8.676;2023-02-04T12:07:24;6.50;74.30
1650;DHT22;822;53.670;8.676;2023-02-04T12:09:52;6.50;73.80
1650;DHT22;822;53.670;8.676;2023-02-04T12:12:24;6.50;73.20
1650;DHT22;822;53.670;8.676;2023-02-04T12:15:08;6.50;73.90
1650;DHT22;822;53.670;8.676;2023-02-04T12:17:35;6.50;74.30
1650;DHT22;822;53.670;8.676;2023-02-04T12:20:05;6.50;74.10
1650;DHT22;822;53.670;8.676;2023-02-04T12:22:34;6.40;74.70
1650;DHT22;822;53.670;8.676;2023-02-04T12:25:01;6.40;75.20
1650;DHT22;822;53.670;8.676;2023-02-04T12:27:28;6.40;75.20
1650;DHT22;822;53.670;8.676;2023-02-04T12:29:55;6.40;75.50
1650;DHT22;822;53.670;8.676;2023-02-04T12:32:22;6.40;73.90
1650;DHT22;822;53.670;8.676;2023-02-04T12:34:49;6.40;73.40
1650;DHT22;822;53.670;8.676;2023-02-04T12:37:16;6.40;71.60
1650;DHT22;822;53.670;8.676;2023-02-04T12:39:45;6.40;71.80
1650;DHT22;822;53.670;8.676;2023-02-04T12:42:12;6.40;72.10
1650;DHT22;822;53.670;8.676;2023-02-04T12:44:39;6.40;71.20
1650;DHT22;822;53.670;8.676;2023-02-04T12:47:06;6.40;71.80
1650;DHT22;822;53.670;8.676;2023-02-04T12:49:36;6.40;71.30
1650;DHT22;822;53.670;8.676;2023-02-04T12:52:03;6.40;72.00
1650;DHT22;822;53.670;8.676;2023-02-04T12:54:30;6.40;71.90
1650;DHT22;822;53.670;8.676;2023-02-04T12:56:59;6.30;71.80
1650;DHT22;822;53.670;8.676;2023-02-04T12:59:27;6.30;72.00
1650;DHT22;822;53.670;8.676;2023-02-04T13:01:55;6.30;72.60
1650;DHT22;822;53.670;8.676;2023-02-04T13:04:22;6.30;72.20
1650;DHT22;822;53.670;8.676;2023-02-04T13:06:49;6.30;71.90
1650;DHT22;822;53.670;8.676;2023-02-04T13:09:16;6.30;72.40
1650;DHT22;822;53.670;8.676;2023-02-04T13:11:44;6.30;72.10
1650;DHT22;822;53.670;8.676;2023-02-04T13:14:12;6.20;72.30
1650;DHT22;822;53.670;8.676;2023-02-04T13:16:39;6.20;72.40
1650;DHT22;822;53.670;8.676;2023-02-04T13:19:06;6.20;72.50
1650;DHT22;822;53.670;8.676;2023-02-04T13:21:33;6.20;72.80
1650;DHT22;822;53.670;8.676;2023-02-04T13:24:00;6.30;72.20
1650;DHT22;822;53.670;8.676;2023-02-04T13:26:27;6.30;71.80
1650;DHT22;822;53.670;8.676;2023-02-04T13:28:54;6.30;70.70
1650;DHT22;822;53.670;8.676;2023-02-04T13:31:23;6.40;70.30
1650;DHT22;822;53.670;8.676;2023-02-04T13:33:50;6.40;70.90
1650;DHT22;822;53.670;8.676;2023-02-04T13:36:17;6.40;72.10
1650;DHT22;822;53.670;8.676;2023-02-04T13:38:44;6.30;72.20
1650;DHT22;822;53.670;8.676;2023-02-04T13:41:11;6.40;71.50
1650;DHT22;822;53.670;8.676;2023-02-04T13:43:38;6.30;72.00
1650;DHT22;822;53.670;8.676;2023-02-04T13:46:05;6.30;73.10
1650;DHT22;822;53.670;8.676;2023-02-04T13:48:34;6.30;70.60
1650;DHT22;822;53.670;8.676;2023-02-04T13:51:01;6.20;69.60
1650;DHT22;822;53.670;8.676;2023-02-04T13:53:28;6.20;69.60
1650;DHT22;822;53.670;8.676;2023-02-04T13:55:56;6.10;70.10
1650;DHT22;822;53.670;8.676;2023-02-04T13:58:23;6.10;70.00
1650;DHT22;822;53.670;8.676;2023-02-04T14:00:50;6.00;70.60
1650;DHT22;822;53.670;8.676;2023-02-04T14:03:22;6.00;71.20
1650;DHT22;822;53.670;8.676;2023-02-04T14:05:51;5.90;71.30
1650;DHT22;822;53.670;8.676;2023-02-04T14:08:18;5.90;71.50
1650;DHT22;822;53.670;8.676;2023-02-04T14:10:45;5.90;71.80
1650;DHT22;822;53.670;8.676;2023-02-04T14:13:13;5.80;72.20
1650;DHT22;822;53.670;8.676;2023-02-04T14:15:40;5.80;72.40
1650;DHT22;822;53.670;8.676;2023-02-04T14:18:07;5.80;72.80
1650;DHT22;822;53.670;8.676;2023-02-04T14:20:35;5.80;72.70
1650;DHT22;822;53.670;8.676;2023-02-04T14:23:04;5.90;72.70
1650;DHT22;822;53.670;8.676;2023-02-04T14:25:32;5.90;72.70
1650;DHT22;822;53.670;8.676;2023-02-04T14:27:59;5.90;73.00
1650;DHT22;822;53.670;8.676;2023-02-04T14:30:27;5.90;73.20
1650;DHT22;822;53.670;8.676;2023-02-04T14:32:55;5.90;73.30
1650;DHT22;822;53.670;8.676;2023-02-04T14:35:23;5.90;72.90
1650;DHT22;822;53.670;8.676;2023-02-04T14:37:50;5.90;72.90
1650;DHT22;822;53.670;8.676;2023-02-04T14:40:21;5.90;72.70
1650;DHT22;822;53.670;8.676;2023-02-04T14:42:48;5.90;73.10
1650;DHT22;822;53.670;8.676;2023-02-04T14:45:15;5.90;73.40
1650;DHT22;822;53.670;8.676;2023-02-04T14:47:43;5.90;73.80
1650;DHT22;822;53.670;8.676;2023-02-04T14:50:13;5.80;73.10
1650;DHT22;822;53.670;8.676;2023-02-04T14:52:40;5.80;73.40
1650;DHT22;822;53.670;8.676;2023-02-04T14:55:08;5.80;73.10
1650;DHT22;822;53.670;8.676;2023-02-04T14:57:37;5.80;73.50
1650;DHT22;822;53.670;8.676;2023-02-04T15:00:05;5.80;74.00
1650;DHT22;822;53.670;8.676;2023-02-04T15:02:33;5.70;74.20
1650;DHT22;822;53.670;8.676;2023-02-04T15:05:00;5.70;74.30
1650;DHT22;822;53.670;8.676;2023-02-04T15:07:27;5.70;74.60
1650;DHT22;822;53.670;8.676;2023-02-04T15:09:54;5.60;75.00
1650;DHT22;822;53.670;8.676;2023-02-04T15:12:22;5.60;75.20
1650;DHT22;822;53.670;8.676;2023-02-04T15:14:50;5.60;75.50
1650;DHT22;822;53.670;8.676;2023-02-04T15:17:17;5.50;75.70
1650;DHT22;822;53.670;8.676;2023-02-04T15:19:44;5.50;75.90
1650;DHT22;822;53.670;8.676;2023-02-04T15:22:12;5.50;76.00
1650;DHT22;822;53.670;8.676;2023-02-04T15:24:39;5.50;75.80
1650;DHT22;822;53.670;8.676;2023-02-04T15:27:06;5.50;76.10
1650;DHT22;822;53.670;8.676;2023-02-04T15:29:34;5.40;76.40
1650;DHT22;822;53.670;8.676;2023-02-04T15:32:03;5.40;76.50
1650;DHT22;822;53.670;8.676;2023-02-04T15:34:30;5.40;77.00
1650;DHT22;822;53.670;8.676;2023-02-04T15:36:57;5.40;77.10
1650;DHT22;822;53.670;8.676;2023-02-04T15:39:25;5.30;77.20
1650;DHT22;822;53.670;8.676;2023-02-04T15:41:52;5.30;77.20
1650;DHT22;822;53.670;8.676;2023-02-04T15:44:19;5.30;77.20
1650;DHT22;822;53.670;8.676;2023-02-04T15:46:47;5.30;77.30
1650;DHT22;822;53.670;8.676;2023-02-04T15:49:16;5.20;77.40
1650;DHT22;822;53.670;8.676;2023-02-04T15:51:43;5.20;77.50
1650;DHT22;822;53.670;8.676;2023-02-04T15:54:10;5.20;77.60
1650;DHT22;822;53.670;8.676;2023-02-04T15:56:38;5.20;77.70
1650;DHT22;822;53.670;8.676;2023-02-04T15:59:05;5.20;77.80
1650;DHT22;822;53.670;8.676;2023-02-04T16:01:32;5.10;78.00
1650;DHT22;822;53.670;8.676;2023-02-04T16:03:59;5.10;77.90
1650;DHT22;822;53.670;8.676;2023-02-04T16:06:28;5.10;77.80
1650;DHT22;822;53.670;8.676;2023-02-04T16:08:58;5.00;77.80
1650;DHT22;822;53.670;8.676;2023-02-04T16:11:25;5.00;77.90
1650;DHT22;822;53.670;8.676;2023-02-04T16:13:52;5.00;78.00
1650;DHT22;822;53.670;8.676;2023-02-04T16:16:19;4.90;78.00
1650;DHT22;822;53.670;8.676;2023-02-04T16:18:47;4.80;78.10
1650;DHT22;822;53.670;8.676;2023-02-04T16:21:14;4.90;77.70
1650;DHT22;822;53.670;8.676;2023-02-04T16:23:42;4.80;77.60
1650;DHT22;822;53.670;8.676;2023-02-04T16:26:09;4.80;77.70
1650;DHT22;822;53.670;8.676;2023-02-04T16:28:37;4.70;77.90
1650;DHT22;822;53.670;8.676;2023-02-04T16:31:04;4.70;77.90
1650;DHT22;822;53.670;8.676;2023-02-04T16:33:34;4.60;77.80
1650;DHT22;822;53.670;8.676;2023-02-04T16:36:02;4.60;78.10
1650;DHT22;822;53.670;8.676;2023-02-04T16:38:30;4.50;78.10
1650;DHT22;822;53.670;8.676;2023-02-04T16:40:59;4.50;78.20
1650;DHT22;822;53.670;8.676;2023-02-04T16:43:26;4.40;78.10